Time;durP1;ratioP1;P1;durP2;ratioP2;P2;SDS_P1;SDS_P2;PMS_P1;PMS_P2;Temp;Humidity;BMP_temperature;BMP_pressure;BME280_temperature;BME280_humidity;BME280_pressure;Samples;Min_cycle;Max_cycle;Signal;HPM_P1;HPM_P2
2023/05/14 00:00:41;;;;;;;3.90;3.70;;;20.50;51.10;;;;;;5006611;28;20232;-76
2023/05/14 00:03:06;;;;;;;4.00;3.77;;;20.60;51.30;;;;;;4995020;28;20567;-76
2023/05/14 00:05:32;;;;;;;3.90;3.70;;;20.50;51.20;;;;;;5009553;28;20215;-76
2023/05/14 00:07:57;;;;;;;3.83;3.63;;;20.60;51.30;;;;;;4990607;28;20261;-76
2023/05/14 00:10:23;;;;;;;4.00;3.80;;;20.50;51.20;;;;;;5005944;28;20257;-76
2023/05/14 00:12:50;;;;;;;3.90;3.70;;;20.50;51.20;;;;;;5001503;28;20238;-76
2023/05/14 00:15:16;;;;;;;3.83;3.63;;;20.50;51.20;;;;;;5013824;28;20339;-76
2023/05/14 00:17:41;;;;;;;3.50;3.30;;;20.50;51.20;;;;;;4997699;28;20456;-76
2023/05/14 00:20:08;;;;;;;3.67;3.47;;;20.60;51.30;;;;;;5011506;28;20223;-76
2023/05/14 00:22:33;;;;;;;4.03;3.83;;;20.50;51.20;;;;;;5011355;28;20214;-76
2023/05/14 00:24:59;;;;;;;3.90;3.70;;;20.60;51.30;;;;;;4986225;28;20455;-76
2023/05/14 00:27:25;;;;;;;3.60;3.40;;;20.50;51.20;;;;;;4995820;28;20255;-76
2023/05/14 00:29:50;;;;;;;3.70;3.50;;;20.50;51.20;;;;;;4993371;28;20291;-76
2023/05/14 00:32:16;;;;;;;3.70;3.50;;;20.50;51.20;;;;;;5002580;28;20246;-76
2023/05/14 00:34:41;;;;;;;3.97;3.77;;;20.60;51.30;;;;;;5001341;28;20238;-76
2023/05/14 00:37:07;;;;;;;3.90;3.70;;;20.50;51.20;;;;;;5009451;28;20566;-76
2023/05/14 00:39:33;;;;;;;3.90;3.60;;;20.60;51.30;;;;;;5001415;28;20257;-76
2023/05/14 00:41:58;;;;;;;4.00;3.80;;;20.50;51.20;;;;;;4998710;28;20239;-76
2023/05/14 00:44:24;;;;;;;3.70;3.50;;;20.60;51.40;;;;;;5008041;28;20233;-76
2023/05/14 00:46:50;;;;;;;3.87;3.67;;;20.50;51.30;;;;;;4996946;28;20234;-76
2023/05/14 00:49:16;;;;;;;4.03;3.83;;;20.50;51.30;;;;;;5011300;28;20235;-76
2023/05/14 00:51:45;;;;;;;3.60;3.40;;;20.50;51.30;;;;;;5007585;28;20311;-76
2023/05/14 00:54:12;;;;;;;4.60;4.40;;;20.50;51.20;;;;;;4999559;28;21360;-76
2023/05/14 00:56:38;;;;;;;4.17;3.97;;;20.50;51.30;;;;;;5007728;28;20524;-76
2023/05/14 00:59:04;;;;;;;3.90;3.70;;;20.50;51.20;;;;;;5010060;28;20569;-76
2023/05/14 01:01:30;;;;;;;3.97;3.77;;;20.50;51.30;;;;;;5005433;28;20227;-76
2023/05/14 01:03:56;;;;;;;3.90;3.70;;;20.60;51.40;;;;;;5007184;28;20367;-76
2023/05/14 01:06:30;;;;;;;4.03;3.83;;;20.50;51.30;;;;;;5000720;28;20243;-76
2023/05/14 01:09:12;;;;;;;4.10;3.90;;;20.50;51.40;;;;;;4992836;28;20449;-76
2023/05/14 01:12:04;;;;;;;4.27;4.07;;;20.50;51.30;;;;;;5010332;28;20468;-76
2023/05/14 01:14:40;;;;;;;4.30;4.00;;;20.50;51.30;;;;;;5005078;28;20476;-76
2023/05/14 01:17:08;;;;;;;5.27;4.97;;;20.50;51.40;;;;;;4989916;28;20541;-75
2023/05/14 01:19:41;;;;;;;4.20;3.80;;;20.50;51.30;;;;;;5012722;28;20447;-75
2023/05/14 01:22:07;;;;;;;3.57;3.47;;;20.50;51.30;;;;;;5009977;28;20987;-76
2023/05/14 01:24:33;;;;;;;4.70;4.43;;;20.50;51.40;;;;;;4997007;28;20440;-75
2023/05/14 01:27:20;;;;;;;4.03;3.83;;;20.50;51.40;;;;;;5010834;28;20956;-76
2023/05/14 01:29:54;;;;;;;3.70;3.50;;;20.50;51.40;;;;;;4996739;28;20223;-76
2023/05/14 01:32:23;;;;;;;4.00;3.80;;;20.50;51.40;;;;;;4999533;28;20474;-76
2023/05/14 01:34:50;;;;;;;3.77;3.57;;;20.50;51.40;;;;;;4995031;28;20507;-76
2023/05/14 01:37:16;;;;;;;3.90;3.70;;;20.50;51.40;;;;;;5009975;28;20483;-76
2023/05/14 01:39:42;;;;;;;4.67;4.47;;;20.50;51.40;;;;;;5007811;28;20468;-76
2023/05/14 01:42:09;;;;;;;4.07;3.87;;;20.50;51.50;;;;;;5011755;28;20268;-75
2023/05/14 01:44:35;;;;;;;3.93;3.73;;;20.50;51.50;;;;;;5009941;28;20425;-76
2023/05/14 01:47:00;;;;;;;3.80;3.60;;;20.50;51.50;;;;;;5007263;28;20442;-76
2023/05/14 01:49:26;;;;;;;4.13;3.93;;;20.50;51.50;;;;;;4999341;28;20434;-76
2023/05/14 01:51:51;;;;;;;4.17;3.97;;;20.50;51.50;;;;;;4989864;28;20212;-76
2023/05/14 01:54:17;;;;;;;4.10;3.90;;;20.50;51.50;;;;;;5001407;28;20246;-76
2023/05/14 01:56:42;;;;;;;4.60;4.40;;;20.50;51.50;;;;;;5005116;28;20289;-76
2023/05/14 01:59:08;;;;;;;4.03;3.83;;;20.50;51.50;;;;;;5006276;28;20220;-76
2023/05/14 02:01:33;;;;;;;4.00;3.80;;;20.50;51.50;;;;;;5007942;28;20225;-76
2023/05/14 02:03:59;;;;;;;3.77;3.57;;;20.50;51.50;;;;;;4999087;28;20223;-76
2023/05/14 02:06:25;;;;;;;4.00;3.80;;;20.50;51.60;;;;;;5000041;28;20266;-76
2023/05/14 02:08:51;;;;;;;4.80;4.50;;;20.50;51.50;;;;;;5002127;28;20446;-76
2023/05/14 02:11:16;;;;;;;4.57;4.23;;;20.50;51.50;;;;;;5003153;28;20248;-75
2023/05/14 02:13:42;;;;;;;4.77;4.47;;;20.50;51.50;;;;;;5008660;28;20230;-76
2023/05/14 02:16:08;;;;;;;3.60;3.40;;;20.50;51.50;;;;;;4990810;28;20577;-76
2023/05/14 02:18:33;;;;;;;4.43;4.23;;;20.50;51.50;;;;;;5003472;28;20227;-76
2023/05/14 02:20:59;;;;;;;4.47;4.27;;;20.50;51.50;;;;;;5011359;28;20629;-76
2023/05/14 02:23:25;;;;;;;3.97;3.77;;;20.50;51.50;;;;;;5008906;28;20696;-75
2023/05/14 02:25:50;;;;;;;3.80;3.60;;;20.50;51.50;;;;;;5010223;28;20220;-76
2023/05/14 02:28:16;;;;;;;4.10;3.90;;;20.50;51.50;;;;;;5012637;28;20215;-76
2023/05/14 02:30:41;;;;;;;4.50;4.30;;;20.50;51.50;;;;;;5003647;28;20218;-76
2023/05/14 02:33:07;;;;;;;4.33;4.13;;;20.50;51.50;;;;;;4989312;28;20245;-75
2023/05/14 02:35:32;;;;;;;4.10;3.90;;;20.50;51.50;;;;;;5003064;28;20231;-76
2023/05/14 02:37:58;;;;;;;3.70;3.50;;;20.50;51.50;;;;;;5003772;28;20219;-76
2023/05/14 02:40:24;;;;;;;4.20;4.00;;;20.50;51.50;;;;;;5010656;28;20218;-76
2023/05/14 02:42:49;;;;;;;4.43;4.23;;;20.50;51.50;;;;;;5002054;28;20258;-75
2023/05/14 02:45:15;;;;;;;4.23;3.93;;;20.50;51.50;;;;;;5009581;28;20269;-76
2023/05/14 02:47:41;;;;;;;4.40;4.20;;;20.50;51.50;;;;;;5014289;28;20240;-76
2023/05/14 02:50:08;;;;;;;4.03;3.83;;;20.50;51.50;;;;;;5010382;28;20242;-76
2023/05/14 02:52:34;;;;;;;4.07;3.87;;;20.50;51.50;;;;;;5011950;28;20967;-76
2023/05/14 02:54:59;;;;;;;4.20;4.00;;;20.50;51.50;;;;;;4998822;28;20461;-75
2023/05/14 02:57:25;;;;;;;4.60;4.40;;;20.50;51.50;;;;;;5013149;28;20235;-75
2023/05/14 02:59:50;;;;;;;4.40;4.20;;;20.50;51.50;;;;;;5006292;28;20228;-75
2023/05/14 03:02:16;;;;;;;4.37;4.17;;;20.50;51.50;;;;;;5009385;28;20414;-75
2023/05/14 03:04:41;;;;;;;4.10;3.90;;;20.50;51.50;;;;;;5010297;28;20249;-75
2023/05/14 03:07:07;;;;;;;4.27;4.07;;;20.50;51.60;;;;;;5011409;28;20364;-75
2023/05/14 03:09:32;;;;;;;4.00;3.80;;;20.50;51.60;;;;;;5008892;28;20341;-75
2023/05/14 03:11:59;;;;;;;4.20;4.00;;;20.50;51.50;;;;;;5013585;28;20246;-75
2023/05/14 03:14:24;;;;;;;4.47;4.27;;;20.40;51.50;;;;;;5011214;28;20242;-76
2023/05/14 03:16:50;;;;;;;4.27;4.07;;;20.50;51.50;;;;;;5004409;28;20439;-76
2023/05/14 03:19:16;;;;;;;3.83;3.63;;;20.50;51.50;;;;;;5003177;28;20226;-75
2023/05/14 03:21:41;;;;;;;3.97;3.77;;;20.40;51.40;;;;;;5010989;28;20647;-76
2023/05/14 03:24:07;;;;;;;4.37;4.17;;;20.50;51.50;;;;;;5007348;28;20218;-76
2023/05/14 03:26:32;;;;;;;4.30;4.10;;;20.40;51.40;;;;;;5016387;28;20296;-75
2023/05/14 03:28:58;;;;;;;5.30;4.83;;;20.50;51.50;;;;;;5009605;28;20221;-76
2023/05/14 03:31:23;;;;;;;3.80;3.60;;;20.50;51.60;;;;;;4999760;28;20949;-75
2023/05/14 03:33:49;;;;;;;4.00;3.70;;;20.50;51.50;;;;;;5016334;28;20218;-76
2023/05/14 03:36:14;;;;;;;4.73;4.53;;;20.50;51.50;;;;;;5012283;28;20222;-76
2023/05/14 03:38:40;;;;;;;4.10;3.90;;;20.40;51.30;;;;;;5000985;28;20361;-76
2023/05/14 03:41:05;;;;;;;4.10;3.90;;;20.40;51.40;;;;;;4990390;28;20576;-76
2023/05/14 03:43:31;;;;;;;4.30;4.10;;;20.40;51.40;;;;;;5005175;28;20626;-76
2023/05/14 03:45:56;;;;;;;4.50;4.30;;;20.50;51.60;;;;;;5000656;28;20691;-75
2023/05/14 03:48:22;;;;;;;3.83;3.63;;;20.50;51.60;;;;;;4998565;28;20223;-76
2023/05/14 03:50:47;;;;;;;4.33;4.03;;;20.40;51.40;;;;;;5012357;28;20319;-76
2023/05/14 03:53:13;;;;;;;4.37;4.17;;;20.50;51.60;;;;;;5001608;28;20227;-76
2023/05/14 03:55:39;;;;;;;4.00;3.80;;;20.40;51.50;;;;;;5010547;28;20338;-76
2023/05/14 03:58:12;;;;;;;4.60;4.40;;;20.40;51.50;;;;;;4992795;28;20245;-76
2023/05/14 04:00:39;;;;;;;4.50;4.30;;;20.40;51.90;;;;;;4995609;28;20218;-75
2023/05/14 04:03:05;;;;;;;3.97;3.77;;;20.50;51.60;;;;;;4998441;28;20486;-75
2023/05/14 04:05:31;;;;;;;3.93;3.73;;;20.40;51.50;;;;;;5012792;28;20467;-76
2023/05/14 04:07:57;;;;;;;4.50;4.30;;;20.40;51.50;;;;;;5014413;28;20968;-76
2023/05/14 04:10:22;;;;;;;4.30;4.10;;;20.50;51.60;;;;;;5017419;28;20243;-76
2023/05/14 04:12:48;;;;;;;4.37;4.17;;;20.40;51.50;;;;;;5009632;28;20260;-75
2023/05/14 04:15:13;;;;;;;4.37;4.17;;;20.40;51.50;;;;;;5013648;28;20225;-76
2023/05/14 04:17:39;;;;;;;3.87;3.67;;;20.40;51.50;;;;;;5011996;28;20243;-75
2023/05/14 04:20:05;;;;;;;4.57;4.37;;;20.50;51.60;;;;;;5014923;28;20227;-74
2023/05/14 04:22:31;;;;;;;3.83;3.63;;;20.40;51.50;;;;;;5004809;28;21197;-74
2023/05/14 04:24:56;;;;;;;4.53;4.20;;;20.40;51.50;;;;;;5006737;28;20443;-74
2023/05/14 04:27:22;;;;;;;3.67;3.50;;;20.40;51.60;;;;;;5006691;28;20216;-75
2023/05/14 04:29:50;;;;;;;3.80;3.60;;;20.40;51.50;;;;;;5012323;28;20231;-75
2023/05/14 04:32:16;;;;;;;4.30;4.10;;;20.40;51.50;;;;;;5008365;28;20275;-75
2023/05/14 04:34:42;;;;;;;4.20;4.00;;;20.40;51.50;;;;;;5015790;28;20464;-75
2023/05/14 04:37:08;;;;;;;4.33;4.13;;;20.40;51.50;;;;;;5011598;28;20526;-75
2023/05/14 04:39:33;;;;;;;3.80;3.60;;;20.40;51.50;;;;;;4986624;28;20216;-75
2023/05/14 04:41:59;;;;;;;4.33;4.13;;;20.40;51.50;;;;;;5002016;28;20235;-75
2023/05/14 04:44:25;;;;;;;5.00;4.70;;;20.50;51.60;;;;;;4997784;28;20253;-75
2023/05/14 04:46:50;;;;;;;4.57;4.37;;;20.40;51.40;;;;;;4997701;28;20222;-75
2023/05/14 04:49:16;;;;;;;4.63;4.43;;;20.40;51.50;;;;;;5001068;28;20234;-75
2023/05/14 04:51:41;;;;;;;5.00;4.80;;;20.50;51.50;;;;;;5006161;28;20220;-75
2023/05/14 04:54:07;;;;;;;4.30;4.10;;;20.50;51.50;;;;;;4994527;28;20562;-75
2023/05/14 04:56:33;;;;;;;4.20;4.00;;;20.40;51.30;;;;;;4997873;28;20705;-75
2023/05/14 04:58:58;;;;;;;4.13;3.93;;;20.40;51.30;;;;;;5005860;28;20682;-75
2023/05/14 05:01:24;;;;;;;3.90;3.70;;;20.50;51.40;;;;;;4992006;28;20820;-75
2023/05/14 05:03:49;;;;;;;4.57;4.37;;;20.50;51.30;;;;;;5004081;28;20224;-75
2023/05/14 05:06:15;;;;;;;4.37;4.17;;;20.50;51.30;;;;;;5002747;28;20709;-75
2023/05/14 05:08:41;;;;;;;4.20;4.00;;;20.50;51.30;;;;;;4996276;28;20238;-75
2023/05/14 05:11:06;;;;;;;4.10;3.90;;;20.50;51.20;;;;;;5011766;28;20242;-75
2023/05/14 05:13:32;;;;;;;4.10;3.90;;;20.50;51.20;;;;;;5003158;28;20326;-76
2023/05/14 05:15:57;;;;;;;4.13;3.93;;;20.50;51.10;;;;;;5005804;28;20834;-75
2023/05/14 05:18:23;;;;;;;4.80;4.50;;;20.50;51.00;;;;;;5002499;28;20214;-76
2023/05/14 05:20:48;;;;;;;4.10;3.90;;;20.50;51.00;;;;;;5002396;28;20249;-75
2023/05/14 05:23:14;;;;;;;4.53;4.23;;;20.50;51.10;;;;;;5002347;28;20290;-76
2023/05/14 05:25:40;;;;;;;4.27;4.07;;;20.50;51.00;;;;;;5001803;28;20223;-75
2023/05/14 05:28:05;;;;;;;4.57;4.37;;;20.50;51.00;;;;;;5012261;28;20218;-73
2023/05/14 05:30:31;;;;;;;4.53;4.33;;;20.50;51.00;;;;;;4987737;28;20230;-75
2023/05/14 05:32:57;;;;;;;4.17;3.97;;;20.50;51.00;;;;;;5012535;28;20481;-75
2023/05/14 05:35:22;;;;;;;4.23;3.97;;;20.50;51.00;;;;;;5011147;28;20215;-73
2023/05/14 05:37:48;;;;;;;3.90;3.70;;;20.50;51.00;;;;;;5002711;28;20260;-73
2023/05/14 05:40:13;;;;;;;3.80;3.60;;;20.50;51.00;;;;;;5007137;28;20227;-73
2023/05/14 05:42:40;;;;;;;3.90;3.70;;;20.50;51.00;;;;;;5008574;28;20239;-73
2023/05/14 05:45:06;;;;;;;4.50;4.30;;;20.50;51.00;;;;;;5012915;28;20302;-73
2023/05/14 05:47:31;;;;;;;4.03;3.83;;;20.50;51.00;;;;;;5002957;28;20945;-74
2023/05/14 05:49:57;;;;;;;4.83;4.63;;;20.50;50.90;;;;;;5006766;28;20436;-73
2023/05/14 05:52:22;;;;;;;4.40;4.20;;;20.50;51.00;;;;;;4995534;28;20207;-74
2023/05/14 05:54:48;;;;;;;3.90;3.70;;;20.50;51.00;;;;;;5019454;28;20220;-73
2023/05/14 05:57:13;;;;;;;4.27;4.07;;;20.50;51.00;;;;;;4988402;28;20228;-74
2023/05/14 05:59:39;;;;;;;4.23;4.03;;;20.50;51.10;;;;;;5008953;28;20215;-73
2023/05/14 06:02:05;;;;;;;4.10;3.90;;;20.50;51.80;;;;;;5006233;28;20848;-74
2023/05/14 06:04:30;;;;;;;4.30;4.10;;;20.50;51.00;;;;;;4992605;28;20215;-73
2023/05/14 06:06:56;;;;;;;4.37;4.17;;;20.50;50.90;;;;;;5012622;28;20227;-73
2023/05/14 06:09:22;;;;;;;4.53;4.33;;;20.60;51.10;;;;;;5007333;28;20227;-73
2023/05/14 06:11:47;;;;;;;4.27;4.07;;;20.50;50.80;;;;;;5003506;28;20642;-74
2023/05/14 06:14:13;;;;;;;4.43;4.23;;;20.50;50.80;;;;;;5008324;28;20227;-75
2023/05/14 06:16:38;;;;;;;4.23;4.03;;;20.50;50.90;;;;;;5012853;28;21065;-73
2023/05/14 06:19:05;;;;;;;4.50;4.30;;;20.50;50.80;;;;;;5015312;28;20226;-75
2023/05/14 06:21:30;;;;;;;3.93;3.73;;;20.50;50.80;;;;;;4996177;28;20682;-75
2023/05/14 06:23:56;;;;;;;4.87;4.50;;;20.50;50.80;;;;;;5011102;28;20426;-75
2023/05/14 06:26:22;;;;;;;5.40;5.00;;;20.60;51.60;;;;;;5010235;28;20242;-76
2023/05/14 06:28:47;;;;;;;4.70;4.23;;;20.50;50.90;;;;;;5013856;28;20686;-76
2023/05/14 06:31:13;;;;;;;5.40;5.10;;;20.50;50.80;;;;;;5013188;28;20449;-73
2023/05/14 06:33:38;;;;;;;5.47;5.17;;;20.50;50.90;;;;;;5012455;28;20234;-76
2023/05/14 06:36:05;;;;;;;4.83;4.53;;;20.50;50.80;;;;;;5012134;28;20219;-76
2023/05/14 06:38:31;;;;;;;5.57;5.07;;;20.50;50.80;;;;;;5005675;28;20307;-76
2023/05/14 06:40:57;;;;;;;5.30;4.90;;;20.50;50.70;;;;;;4990342;28;20462;-76
2023/05/14 06:43:22;;;;;;;5.30;4.87;;;20.50;50.50;;;;;;5006319;28;20225;-73
2023/05/14 06:45:48;;;;;;;5.33;4.93;;;20.50;50.50;;;;;;4986663;28;20215;-74
2023/05/14 06:48:17;;;;;;;7.40;4.63;;;20.50;50.50;;;;;;5016095;28;20265;-73
2023/05/14 06:50:43;;;;;;;6.40;4.73;;;20.50;50.50;;;;;;5006849;28;20533;-74
2023/05/14 06:53:08;;;;;;;4.43;4.23;;;20.50;50.50;;;;;;5002128;28;21075;-73
2023/05/14 06:55:34;;;;;;;4.80;4.60;;;20.50;50.50;;;;;;5019531;28;20427;-73
2023/05/14 06:58:00;;;;;;;4.93;4.60;;;20.50;50.60;;;;;;5017990;28;20215;-73
2023/05/14 07:00:26;;;;;;;5.57;5.07;;;20.50;50.50;;;;;;5014356;28;20312;-73
2023/05/14 07:02:52;;;;;;;5.50;5.10;;;20.40;50.40;;;;;;5017686;28;20242;-73
2023/05/14 07:05:18;;;;;;;5.37;4.87;;;20.50;50.50;;;;;;5010194;28;20567;-72
2023/05/14 07:07:44;;;;;;;5.43;5.00;;;20.50;50.50;;;;;;5014551;28;20217;-73
2023/05/14 07:10:09;;;;;;;10.03;4.70;;;20.40;50.40;;;;;;5007583;28;20246;-74
2023/05/14 07:12:35;;;;;;;5.00;4.70;;;20.40;50.50;;;;;;5008088;28;20223;-75
2023/05/14 07:15:01;;;;;;;5.30;4.80;;;20.50;50.50;;;;;;4973562;28;20224;-73
2023/05/14 07:17:26;;;;;;;4.73;4.43;;;20.50;50.50;;;;;;4999858;28;20249;-73
2023/05/14 07:19:54;;;;;;;4.83;4.47;;;20.50;51.20;;;;;;4985268;28;20223;-75
2023/05/14 07:22:20;;;;;;;7.97;4.90;;;20.50;51.20;;;;;;5009452;28;20769;-74
2023/05/14 07:24:45;;;;;;;5.37;4.97;;;20.50;50.50;;;;;;4988988;28;20548;-73
2023/05/14 07:27:11;;;;;;;7.83;5.13;;;20.50;50.50;;;;;;4997471;28;20215;-74
2023/05/14 07:29:36;;;;;;;12.60;5.20;;;20.60;50.60;;;;;;4989826;28;20255;-75
2023/05/14 07:32:03;;;;;;;15.60;5.60;;;20.60;50.60;;;;;;4992478;28;20278;-75
2023/05/14 07:34:28;;;;;;;9.60;4.90;;;20.60;50.60;;;;;;5000159;28;20310;-75
2023/05/14 07:36:54;;;;;;;9.87;5.73;;;20.60;50.60;;;;;;4986063;28;20480;-75
2023/05/14 07:39:21;;;;;;;6.90;5.03;;;20.60;50.60;;;;;;5004942;28;20708;-73
2023/05/14 07:41:46;;;;;;;5.67;5.20;;;20.60;50.60;;;;;;4985687;28;20704;-71
2023/05/14 07:44:12;;;;;;;27.20;11.07;;;20.60;50.60;;;;;;5004449;28;20472;-71
2023/05/14 07:46:37;;;;;;;84.13;17.37;;;20.60;51.30;;;;;;4980322;28;21544;-71
2023/05/14 07:49:03;;;;;;;55.97;12.00;;;20.60;50.60;;;;;;4993900;28;20239;-75
2023/05/14 07:51:29;;;;;;;40.37;8.73;;;20.60;50.60;;;;;;5004567;28;20214;-75
2023/05/14 07:53:54;;;;;;;23.63;8.40;;;20.70;50.70;;;;;;5011963;28;20254;-74
2023/05/14 07:56:21;;;;;;;18.00;6.90;;;20.70;50.70;;;;;;4982278;28;20615;-76
2023/05/14 07:58:47;;;;;;;10.10;6.67;;;20.70;50.70;;;;;;4994272;28;20215;-75
2023/05/14 08:01:13;;;;;;;11.27;6.60;;;20.70;50.70;;;;;;4992581;28;20454;-77
2023/05/14 08:03:38;;;;;;;14.23;7.17;;;20.70;50.80;;;;;;5005107;28;20747;-75
2023/05/14 08:06:04;;;;;;;13.27;7.23;;;20.70;50.70;;;;;;4988771;28;20283;-79
2023/05/14 08:08:30;;;;;;;14.37;6.90;;;20.60;50.60;;;;;;4998389;28;20273;-79
2023/05/14 08:10:55;;;;;;;14.50;7.27;;;20.60;50.60;;;;;;4993850;28;20531;-73
2023/05/14 08:13:21;;;;;;;16.87;6.90;;;20.70;50.70;;;;;;4990220;28;21274;-73
2023/05/14 08:15:46;;;;;;;10.27;7.17;;;20.60;50.60;;;;;;4990743;28;21210;-73
2023/05/14 08:18:12;;;;;;;9.17;6.13;;;20.60;50.60;;;;;;5004355;28;20218;-73
2023/05/14 08:20:38;;;;;;;12.37;6.93;;;20.60;50.60;;;;;;5006688;28;20306;-73
2023/05/14 08:23:03;;;;;;;16.57;6.37;;;20.60;50.60;;;;;;5004264;28;20573;-72
2023/05/14 08:25:29;;;;;;;11.70;6.20;;;20.70;50.70;;;;;;4994715;28;20214;-75
2023/05/14 08:27:54;;;;;;;12.33;7.00;;;20.70;50.80;;;;;;4999983;28;20609;-74
2023/05/14 08:30:21;;;;;;;10.53;5.70;;;20.80;50.80;;;;;;5006190;28;20302;-74
2023/05/14 08:32:46;;;;;;;9.40;5.73;;;20.80;50.80;;;;;;4986407;28;20239;-74
2023/05/14 08:35:12;;;;;;;6.50;5.87;;;20.90;51.40;;;;;;4994569;28;20925;-74
2023/05/14 08:37:38;;;;;;;6.37;5.60;;;20.90;50.50;;;;;;5005122;28;20761;-74
2023/05/14 08:40:03;;;;;;;6.33;5.53;;;20.90;50.50;;;;;;4996806;28;20792;-74
2023/05/14 08:42:30;;;;;;;6.57;5.97;;;20.90;50.50;;;;;;5003833;28;20233;-74
2023/05/14 08:45:06;;;;;;;6.73;5.70;;;20.90;50.50;;;;;;5010685;28;20698;-74
2023/05/14 08:47:32;;;;;;;5.90;5.40;;;20.90;50.40;;;;;;4999498;28;20428;-73
2023/05/14 08:50:08;;;;;;;8.43;4.93;;;20.90;50.40;;;;;;5008849;28;20441;-73
2023/05/14 08:52:35;;;;;;;12.07;5.70;;;20.90;50.50;;;;;;5010067;28;22508;-72
2023/05/14 08:55:05;;;;;;;6.40;5.50;;;20.90;50.50;;;;;;5009636;28;20475;-73
2023/05/14 08:57:32;;;;;;;7.30;5.37;;;20.90;50.50;;;;;;5003720;28;20471;-73
2023/05/14 08:59:58;;;;;;;5.27;4.80;;;20.90;50.50;;;;;;5012589;28;20487;-73
2023/05/14 09:02:28;;;;;;;7.23;5.10;;;21.00;50.70;;;;;;5009809;28;20461;-73
2023/05/14 09:04:58;;;;;;;6.67;5.70;;;20.90;50.60;;;;;;5009653;28;20312;-73
2023/05/14 09:07:24;;;;;;;5.70;5.30;;;20.90;50.60;;;;;;4994439;28;20484;-72
2023/05/14 09:09:51;;;;;;;6.63;4.67;;;20.90;50.60;;;;;;4986578;28;20522;-73
2023/05/14 09:12:17;;;;;;;5.90;5.40;;;20.90;50.60;;;;;;4992555;28;20441;-72
2023/05/14 09:14:43;;;;;;;5.90;5.50;;;20.90;50.60;;;;;;4986444;28;20534;-72
2023/05/14 09:17:11;;;;;;;6.20;4.87;;;20.90;50.60;;;;;;5004194;28;20250;-72
2023/05/14 09:19:40;;;;;;;5.47;5.17;;;20.90;50.60;;;;;;4997805;28;20526;-72
2023/05/14 09:22:11;;;;;;;9.27;5.47;;;20.90;50.60;;;;;;5007263;28;20602;-73
2023/05/14 09:24:38;;;;;;;9.70;4.87;;;20.90;50.70;;;;;;4992127;28;20485;-72
2023/05/14 09:27:05;;;;;;;4.93;4.63;;;20.90;50.70;;;;;;4998696;28;20471;-72
2023/05/14 09:29:31;;;;;;;5.80;5.30;;;20.90;50.70;;;;;;4986069;28;20832;-72
2023/05/14 09:31:59;;;;;;;5.10;4.80;;;20.90;50.70;;;;;;5000370;28;20487;-72
2023/05/14 09:34:26;;;;;;;5.87;5.47;;;20.90;50.80;;;;;;4987738;28;21083;-72
2023/05/14 09:37:02;;;;;;;4.93;4.53;;;20.90;50.80;;;;;;4995221;28;20476;-73
2023/05/14 09:39:29;;;;;;;5.03;4.63;;;20.90;50.80;;;;;;5004519;28;20444;-73
2023/05/14 09:41:55;;;;;;;5.33;4.93;;;20.90;50.70;;;;;;4993642;28;20447;-73
2023/05/14 09:44:21;;;;;;;6.30;4.93;;;20.90;50.80;;;;;;5009277;28;20453;-73
2023/05/14 09:46:48;;;;;;;5.93;4.70;;;20.90;50.70;;;;;;4978714;28;22911;-73
2023/05/14 09:49:14;;;;;;;5.27;4.87;;;21.00;50.80;;;;;;4999554;28;20472;-75
2023/05/14 09:51:39;;;;;;;5.20;4.90;;;21.00;50.70;;;;;;4976625;28;22649;-74
2023/05/14 09:54:05;;;;;;;4.47;4.27;;;21.00;50.70;;;;;;5001818;28;20235;-73
2023/05/14 09:56:32;;;;;;;4.80;4.50;;;21.00;50.60;;;;;;4998185;28;20614;-72
2023/05/14 09:58:58;;;;;;;6.97;4.90;;;21.00;50.60;;;;;;4991115;28;20447;-74
2023/05/14 10:01:24;;;;;;;5.33;4.40;;;21.00;50.60;;;;;;4981882;28;20497;-72
2023/05/14 10:03:52;;;;;;;5.33;4.93;;;21.00;50.60;;;;;;4999071;28;20219;-72
2023/05/14 10:06:22;;;;;;;4.83;4.63;;;21.00;50.70;;;;;;4993392;28;20468;-72
2023/05/14 10:08:52;;;;;;;4.50;4.30;;;21.00;50.60;;;;;;4998459;28;20468;-74
2023/05/14 10:11:24;;;;;;;5.03;4.40;;;21.00;50.60;;;;;;5000079;28;20471;-74
2023/05/14 10:14:16;;;;;;;5.03;4.70;;;21.00;50.70;;;;;;4979387;28;20520;-73
2023/05/14 10:16:49;;;;;;;5.93;5.63;;;21.00;50.60;;;;;;5001059;28;20513;-73
2023/05/14 10:19:16;;;;;;;5.40;4.90;;;21.00;50.80;;;;;;4990061;28;20878;-73
2023/05/14 10:21:44;;;;;;;4.73;4.43;;;21.00;50.80;;;;;;4996913;28;20481;-73
2023/05/14 10:24:11;;;;;;;5.07;4.77;;;21.00;50.80;;;;;;5009464;28;20559;-73
2023/05/14 10:26:39;;;;;;;5.00;4.70;;;21.00;50.90;;;;;;4991937;28;20456;-73
2023/05/14 10:29:05;;;;;;;4.80;4.57;;;21.00;50.90;;;;;;5013356;28;20469;-73
2023/05/14 10:31:52;;;;;;;5.13;4.70;;;21.00;50.90;;;;;;4997297;28;20551;-73
2023/05/14 10:34:39;;;;;;;4.63;4.43;;;21.00;50.90;;;;;;5013667;28;20484;-73
2023/05/14 10:37:11;;;;;;;5.27;4.97;;;21.00;50.90;;;;;;5011202;28;20462;-73
2023/05/14 10:39:49;;;;;;;5.20;5.00;;;21.00;51.00;;;;;;5010988;28;20536;-73
2023/05/14 10:42:20;;;;;;;5.70;5.30;;;21.00;51.00;;;;;;5008119;28;20473;-73
2023/05/14 10:44:55;;;;;;;5.10;4.80;;;20.90;50.80;;;;;;5003397;28;20567;-72
2023/05/14 10:47:21;;;;;;;4.77;4.47;;;20.90;50.80;;;;;;5009162;28;20892;-72
2023/05/14 10:49:51;;;;;;;5.03;4.83;;;21.00;50.90;;;;;;5009532;28;20432;-72
2023/05/14 10:52:18;;;;;;;4.67;4.33;;;20.90;50.80;;;;;;5011551;28;20622;-72
2023/05/14 10:54:51;;;;;;;4.73;4.53;;;20.90;50.80;;;;;;5018388;28;20468;-72
2023/05/14 10:57:19;;;;;;;4.80;4.60;;;20.90;50.80;;;;;;5007430;28;20481;-72
2023/05/14 10:59:54;;;;;;;4.60;4.30;;;20.90;50.70;;;;;;5009043;28;20945;-72
2023/05/14 11:02:25;;;;;;;5.10;4.80;;;20.90;50.80;;;;;;4996149;28;20464;-72
2023/05/14 11:04:54;;;;;;;4.50;4.20;;;20.90;50.80;;;;;;5012091;28;20464;-71
2023/05/14 11:07:28;;;;;;;5.00;4.80;;;20.90;50.80;;;;;;4991601;28;23417;-72
2023/05/14 11:10:07;;;;;;;5.33;4.93;;;20.90;50.80;;;;;;5001360;28;21029;-72
2023/05/14 11:12:35;;;;;;;5.37;5.07;;;20.90;50.70;;;;;;5002433;28;20472;-72
2023/05/14 11:15:03;;;;;;;5.10;4.80;;;20.90;51.50;;;;;;4999876;28;20473;-72
2023/05/14 11:17:30;;;;;;;5.20;4.80;;;20.90;50.80;;;;;;5007428;28;20468;-73
2023/05/14 11:19:56;;;;;;;4.80;4.60;;;20.90;50.70;;;;;;5014995;28;20848;-71
2023/05/14 11:22:24;;;;;;;5.47;5.03;;;20.90;50.80;;;;;;4998574;28;20875;-72
2023/05/14 11:24:53;;;;;;;4.80;4.53;;;20.90;50.80;;;;;;4996363;28;20448;-71
2023/05/14 11:27:20;;;;;;;5.17;4.57;;;20.90;50.80;;;;;;4993464;28;20431;-73
2023/05/14 11:29:47;;;;;;;4.70;4.50;;;20.90;50.80;;;;;;5000855;28;20560;-72
2023/05/14 11:32:14;;;;;;;4.80;4.50;;;20.90;50.80;;;;;;4994463;28;20526;-71
2023/05/14 11:34:41;;;;;;;4.80;4.40;;;20.90;50.80;;;;;;4997553;28;20450;-72
2023/05/14 11:37:07;;;;;;;4.93;4.73;;;20.90;50.80;;;;;;4998746;28;20460;-72
2023/05/14 11:39:36;;;;;;;4.67;4.43;;;20.90;50.80;;;;;;5008660;28;20427;-72
2023/05/14 11:42:03;;;;;;;4.90;4.57;;;20.90;50.80;;;;;;4998569;28;20468;-71
2023/05/14 11:44:28;;;;;;;5.47;5.27;;;20.90;50.80;;;;;;4998577;28;20463;-71
2023/05/14 11:46:58;;;;;;;4.90;4.70;;;20.90;50.80;;;;;;4999721;28;20453;-72
2023/05/14 11:49:24;;;;;;;4.40;4.20;;;20.90;50.80;;;;;;4997216;28;20220;-72
2023/05/14 11:52:00;;;;;;;5.20;5.00;;;20.90;50.80;;;;;;5010085;28;21137;-72
2023/05/14 11:54:29;;;;;;;5.03;4.83;;;20.90;50.80;;;;;;5008149;28;20513;-72
2023/05/14 11:56:56;;;;;;;4.93;4.63;;;20.90;50.80;;;;;;5012052;28;20746;-72
2023/05/14 11:59:30;;;;;;;4.73;4.53;;;20.90;50.80;;;;;;4997712;28;20468;-72
2023/05/14 12:01:56;;;;;;;5.20;4.97;;;20.90;50.80;;;;;;5006157;28;20468;-72
2023/05/14 12:04:22;;;;;;;5.30;4.80;;;20.90;50.80;;;;;;5015643;28;20475;-72
2023/05/14 12:06:49;;;;;;;4.60;4.40;;;20.90;50.80;;;;;;5017771;28;20455;-72
2023/05/14 12:09:21;;;;;;;5.53;5.17;;;20.90;50.80;;;;;;5012736;28;20229;-71
2023/05/14 12:11:48;;;;;;;6.13;5.60;;;20.90;50.80;;;;;;5009311;28;21034;-72
2023/05/14 12:14:16;;;;;;;5.00;4.80;;;20.90;50.80;;;;;;4993700;28;20476;-73
2023/05/14 12:16:43;;;;;;;4.50;4.30;;;20.90;50.80;;;;;;4998073;28;21030;-71
2023/05/14 12:19:12;;;;;;;4.90;4.70;;;20.90;50.80;;;;;;5001003;28;20988;-73
2023/05/14 12:21:39;;;;;;;5.30;5.03;;;20.90;50.80;;;;;;5003926;28;20463;-74
2023/05/14 12:24:12;;;;;;;4.70;4.50;;;20.90;50.80;;;;;;4996662;28;20453;-74
2023/05/14 12:26:38;;;;;;;4.43;4.23;;;20.90;50.80;;;;;;4995760;28;20527;-74
2023/05/14 12:29:05;;;;;;;4.40;4.20;;;20.90;50.80;;;;;;4994038;28;20461;-74
2023/05/14 12:31:35;;;;;;;4.47;4.27;;;20.90;50.80;;;;;;5000334;28;20506;-73
2023/05/14 12:34:03;;;;;;;4.40;4.20;;;20.90;50.80;;;;;;4981457;28;20482;-72
2023/05/14 12:36:31;;;;;;;5.40;4.90;;;20.90;50.80;;;;;;4986257;28;21240;-73
2023/05/14 12:39:02;;;;;;;5.00;4.70;;;20.90;50.80;;;;;;5007960;28;20474;-72
2023/05/14 12:41:31;;;;;;;4.43;4.23;;;20.90;50.80;;;;;;4998397;28;20962;-73
2023/05/14 12:43:57;;;;;;;4.53;4.33;;;20.90;50.90;;;;;;4994718;28;20476;-73